createdAt,value
2023-01-13T00:00:26.644Z,6.07
2023-01-13T00:02:54.341Z,3.13
2023-01-13T00:05:22.147Z,5.70
2023-01-13T00:07:49.801Z,4.55
2023-01-13T00:10:17.470Z,1.98
2023-01-13T00:12:45.173Z,1.58
2023-01-13T00:15:13.532Z,1.83
2023-01-13T00:17:41.139Z,1.50
2023-01-13T00:20:10.568Z,2.95
2023-01-13T00:22:38.231Z,3.40
2023-01-13T00:25:06.793Z,2.92
2023-01-13T00:27:34.677Z,2.15
2023-01-13T00:30:03.319Z,0.57
2023-01-13T00:32:31.111Z,2.90
2023-01-13T00:34:59.120Z,2.00
2023-01-13T00:37:27.222Z,2.13
2023-01-13T00:39:54.861Z,3.45
2023-01-13T00:42:41.119Z,4.17
2023-01-13T00:45:09.073Z,4.05
2023-01-13T00:47:36.682Z,4.18
2023-01-13T00:50:04.664Z,2.33
2023-01-13T00:52:33.080Z,3.92
2023-01-13T00:55:01.060Z,3.13
2023-01-13T00:57:28.689Z,3.63
2023-01-13T00:59:56.478Z,4.90
2023-01-13T01:02:24.196Z,3.40
2023-01-13T01:04:51.955Z,2.15
2023-01-13T01:07:19.571Z,1.90
2023-01-13T01:09:47.224Z,3.55
2023-01-13T01:12:14.858Z,1.83
2023-01-13T01:14:42.509Z,1.45
2023-01-13T01:17:10.125Z,4.95
2023-01-13T01:19:38.922Z,3.37
2023-01-13T01:22:06.706Z,6.07
2023-01-13T01:24:34.389Z,4.82
2023-01-13T01:27:02.119Z,1.85
2023-01-13T01:29:29.783Z,3.40
2023-01-13T01:31:59.222Z,3.43
2023-01-13T01:34:27.089Z,7.93
2023-01-13T01:36:54.744Z,4.15
2023-01-13T01:39:22.433Z,3.22
2023-01-13T01:42:08.991Z,5.72
2023-01-13T01:44:42.681Z,2.53
2023-01-13T01:47:14.009Z,2.72
2023-01-13T01:49:43.542Z,0.88
2023-01-13T01:52:16.819Z,4.05
2023-01-13T01:54:48.162Z,2.47
2023-01-13T01:57:26.778Z,2.33
2023-01-13T01:59:54.908Z,3.55
2023-01-13T02:02:23.024Z,3.15
2023-01-13T02:04:53.586Z,1.70
2023-01-13T02:07:25.491Z,4.25
2023-01-13T02:09:55.941Z,2.53
2023-01-13T02:12:34.843Z,3.28
2023-01-13T02:15:15.391Z,3.95
2023-01-13T02:17:55.105Z,4.15
2023-01-13T02:20:31.832Z,2.85
2023-01-13T02:24:02.909Z,3.17
2023-01-13T02:26:42.245Z,3.80
2023-01-13T02:30:03.311Z,3.25
2023-01-13T02:32:55.751Z,2.42
2023-01-13T02:35:27.475Z,3.88
2023-01-13T02:37:57.485Z,5.73
2023-01-13T02:40:37.061Z,2.20
2023-01-13T02:43:29.543Z,1.13
2023-01-13T02:46:20.122Z,4.25
2023-01-13T02:48:50.198Z,3.78
2023-01-13T02:51:22.332Z,3.60
2023-01-13T02:54:16.671Z,4.93
2023-01-13T02:56:48.554Z,6.00
2023-01-13T02:59:16.901Z,3.72
2023-01-13T03:01:45.818Z,3.25
2023-01-13T03:04:46.639Z,4.73
2023-01-13T03:07:57.373Z,4.15
2023-01-13T03:10:32.997Z,4.72
2023-01-13T03:13:42.870Z,2.97
2023-01-13T03:16:29.308Z,4.82
2023-01-13T03:19:15.318Z,7.47
2023-01-13T03:21:53.746Z,2.38
2023-01-13T03:24:21.369Z,3.10
2023-01-13T03:27:09.900Z,3.53
2023-01-13T03:29:46.312Z,9.73
2023-01-13T03:32:24.535Z,4.10
2023-01-13T03:34:58.286Z,5.53
2023-01-13T03:37:33.997Z,6.22
2023-01-13T03:40:07.761Z,3.55
2023-01-13T03:42:38.479Z,4.95
2023-01-13T03:45:19.690Z,4.93
2023-01-13T03:48:16.378Z,3.03
2023-01-13T03:51:07.060Z,3.45
2023-01-13T03:53:47.689Z,3.13
2023-01-13T03:56:41.483Z,3.35
2023-01-13T03:59:15.544Z,5.87
2023-01-13T04:02:09.476Z,3.53
2023-01-13T04:04:50.669Z,3.58
2023-01-13T04:07:46.590Z,6.72
2023-01-13T04:10:19.963Z,3.58
2023-01-13T04:13:03.199Z,4.00
2023-01-13T04:15:41.283Z,3.65
2023-01-13T04:18:11.796Z,3.75
2023-01-13T04:20:40.224Z,5.50
2023-01-13T04:23:08.859Z,1.85
2023-01-13T04:25:36.778Z,3.87
2023-01-13T04:28:04.701Z,3.50
2023-01-13T04:30:32.383Z,1.80
2023-01-13T04:33:00.008Z,3.25
2023-01-13T04:35:27.782Z,3.35
2023-01-13T04:37:55.293Z,4.57
2023-01-13T04:40:22.923Z,7.45
2023-01-13T04:42:50.485Z,2.05
2023-01-13T04:45:18.121Z,1.75
2023-01-13T04:47:45.715Z,3.63
2023-01-13T04:50:13.727Z,5.93
2023-01-13T04:52:41.325Z,2.40
2023-01-13T04:55:10.545Z,1.90
2023-01-13T04:57:38.253Z,2.90
2023-01-13T05:00:07.521Z,2.20
2023-01-13T05:02:35.078Z,2.10
2023-01-13T05:05:02.762Z,1.63
2023-01-13T05:07:30.707Z,4.00
2023-01-13T05:09:58.293Z,4.32
2023-01-13T05:12:44.468Z,2.63
2023-01-13T05:15:32.611Z,2.90
2023-01-13T05:18:01.312Z,4.03
2023-01-13T05:20:28.879Z,4.97
2023-01-13T05:23:15.439Z,4.03
2023-01-13T05:25:44.529Z,6.93
2023-01-13T05:28:12.247Z,3.57
2023-01-13T05:30:42.730Z,0.63
2023-01-13T05:33:11.512Z,3.33
2023-01-13T05:35:41.088Z,1.55
2023-01-13T05:38:09.285Z,4.75
2023-01-13T05:40:59.044Z,3.53
2023-01-13T05:43:27.907Z,4.85
2023-01-13T05:46:08.145Z,5.40
2023-01-13T05:48:38.594Z,2.80
2023-01-13T05:51:08.383Z,1.95
2023-01-13T05:53:36.680Z,3.30
2023-01-13T05:56:06.219Z,1.88
2023-01-13T05:58:34.359Z,2.63
2023-01-13T06:01:07.834Z,3.08
2023-01-13T06:03:36.543Z,3.30
2023-01-13T06:06:04.826Z,1.60
2023-01-13T06:08:32.931Z,2.83
2023-01-13T06:11:00.618Z,2.95
2023-01-13T06:13:28.220Z,1.13
2023-01-13T06:15:57.797Z,5.30
2023-01-13T06:18:26.096Z,2.97
2023-01-13T06:20:53.835Z,4.15
2023-01-13T06:23:21.495Z,0.68
2023-01-13T06:26:07.114Z,2.63
2023-01-13T06:28:35.027Z,1.80
2023-01-13T06:31:06.573Z,2.93
2023-01-13T06:33:39.159Z,3.42
2023-01-13T06:36:19.397Z,3.70
2023-01-13T06:38:50.038Z,3.97
2023-01-13T06:41:38.635Z,5.97
2023-01-13T06:44:06.626Z,2.27
2023-01-13T06:46:35.197Z,5.50
2023-01-13T06:49:02.998Z,3.00
2023-01-13T06:51:30.612Z,6.18
2023-01-13T06:53:58.225Z,5.72
2023-01-13T06:56:25.769Z,3.67
2023-01-13T06:58:53.662Z,4.20
2023-01-13T07:01:21.384Z,3.15
2023-01-13T07:03:49.062Z,8.68
2023-01-13T07:06:16.643Z,3.92
2023-01-13T07:08:44.260Z,5.37
2023-01-13T07:11:11.827Z,16.30
2023-01-13T07:13:57.886Z,6.40
2023-01-13T07:16:28.176Z,8.15
2023-01-13T07:18:56.937Z,6.13
2023-01-13T07:21:24.532Z,5.70
2023-01-13T07:23:52.146Z,4.05
2023-01-13T07:26:19.888Z,10.77
2023-01-13T07:28:47.514Z,5.95
2023-01-13T07:31:18.480Z,7.20
2023-01-13T07:33:46.557Z,9.03
2023-01-13T07:36:14.937Z,2.78
2023-01-13T07:38:44.632Z,6.15
2023-01-13T07:41:32.953Z,7.13
2023-01-13T07:44:02.881Z,2.90
2023-01-13T07:46:31.001Z,5.73
2023-01-13T07:48:58.674Z,4.85
2023-01-13T07:51:26.497Z,6.22
2023-01-13T07:53:54.253Z,4.93
2023-01-13T07:56:21.868Z,3.10
2023-01-13T07:58:51.221Z,4.23
2023-01-13T08:01:19.391Z,4.65
2023-01-13T08:03:47.425Z,3.70
2023-01-13T08:06:15.311Z,5.38
2023-01-13T08:08:42.907Z,6.32
2023-01-13T08:11:10.659Z,2.67
2023-01-13T08:13:38.214Z,5.68
2023-01-13T08:16:11.811Z,2.95
2023-01-13T08:18:39.943Z,4.35
2023-01-13T08:21:13.911Z,5.18
2023-01-13T08:23:43.129Z,5.27
2023-01-13T08:26:13.852Z,4.68
2023-01-13T08:28:41.611Z,3.40
2023-01-13T08:31:12.458Z,5.72
2023-01-13T08:33:40.665Z,8.80
2023-01-13T08:36:11.164Z,3.80
2023-01-13T08:38:39.762Z,6.70
2023-01-13T08:41:12.414Z,4.18
2023-01-13T08:43:40.178Z,14.25
2023-01-13T08:46:07.931Z,20.20
2023-01-13T08:48:36.107Z,19.53
2023-01-13T08:51:09.127Z,15.43
2023-01-13T08:53:36.984Z,8.73
2023-01-13T08:56:11.857Z,7.13
2023-01-13T08:58:40.759Z,5.18
2023-01-13T09:01:10.762Z,8.20
2023-01-13T09:03:39.456Z,15.30
2023-01-13T09:06:07.105Z,28.17
2023-01-13T09:08:34.943Z,21.92
2023-01-13T09:11:22.728Z,21.52
2023-01-13T09:13:50.592Z,7.07
2023-01-13T09:16:18.512Z,8.77
2023-01-13T09:18:46.327Z,7.75
2023-01-13T09:21:15.259Z,2.42
2023-01-13T09:23:43.016Z,8.93
2023-01-13T09:26:11.763Z,20.73
2023-01-13T09:28:39.402Z,10.82
2023-01-13T09:31:07.398Z,13.88
2023-01-13T09:33:53.664Z,7.28
2023-01-13T09:36:21.639Z,4.45
2023-01-13T09:38:50.383Z,3.70
2023-01-13T09:41:42.370Z,2.13
2023-01-13T09:44:16.741Z,7.03
2023-01-13T09:46:49.368Z,5.43
2023-01-13T09:49:24.189Z,5.30
2023-01-13T09:51:59.116Z,3.77
2023-01-13T09:54:52.017Z,3.40
2023-01-13T09:57:21.465Z,3.38
2023-01-13T09:59:49.423Z,5.90
2023-01-13T10:02:55.586Z,2.13
2023-01-13T10:05:36.794Z,4.40
2023-01-13T10:08:21.037Z,2.65
2023-01-13T10:10:51.637Z,5.05
2023-01-13T10:13:22.779Z,2.63
2023-01-13T10:15:56.679Z,5.07
2023-01-13T10:18:33.226Z,3.93
2023-01-13T10:21:31.775Z,3.47
2023-01-13T10:24:17.997Z,3.08
2023-01-13T10:26:54.764Z,3.10
2023-01-13T10:29:28.441Z,2.67
2023-01-13T10:31:58.162Z,5.50
2023-01-13T10:34:27.768Z,3.65
2023-01-13T10:37:00.318Z,5.63
2023-01-13T10:39:28.656Z,1.92
2023-01-13T10:42:04.696Z,3.22
2023-01-13T10:44:32.452Z,3.97
2023-01-13T10:47:00.216Z,4.28
2023-01-13T10:49:37.091Z,3.33
2023-01-13T10:52:25.586Z,2.72
2023-01-13T10:54:55.227Z,1.60
2023-01-13T10:57:27.816Z,2.87
2023-01-13T10:59:56.454Z,2.75
2023-01-13T11:02:33.089Z,2.30
2023-01-13T11:05:22.951Z,1.42
2023-01-13T11:07:54.585Z,3.22
2023-01-13T11:10:24.355Z,3.97
2023-01-13T11:13:13.850Z,1.70
2023-01-13T11:16:00.177Z,1.85
2023-01-13T11:19:02.493Z,3.63
2023-01-13T11:21:38.104Z,2.45
2023-01-13T11:24:21.660Z,3.33
2023-01-13T11:27:01.971Z,4.18
2023-01-13T11:29:41.643Z,5.07
2023-01-13T11:32:20.153Z,3.85
2023-01-13T11:35:02.257Z,3.90
2023-01-13T11:37:36.317Z,4.83
2023-01-13T11:40:12.102Z,2.88
2023-01-13T11:43:00.072Z,6.28
2023-01-13T11:45:42.494Z,5.65
2023-01-13T11:48:17.701Z,4.18
2023-01-13T11:51:05.521Z,4.13
2023-01-13T11:54:00.924Z,2.55
2023-01-13T11:56:43.667Z,5.22
2023-01-13T11:59:35.592Z,3.65
2023-01-13T12:02:18.612Z,4.10
2023-01-13T12:05:06.721Z,6.60
2023-01-13T12:07:52.758Z,3.45
2023-01-13T12:10:40.792Z,3.00
2023-01-13T12:13:14.519Z,4.60
2023-01-13T12:16:03.279Z,2.92
2023-01-13T12:19:16.239Z,2.40
2023-01-13T12:22:23.715Z,4.38
2023-01-13T12:25:02.873Z,6.45
2023-01-13T12:27:55.519Z,4.57
2023-01-13T12:30:37.220Z,3.53
2023-01-13T12:33:42.504Z,6.73
2023-01-13T12:36:26.990Z,5.13
2023-01-13T12:39:04.042Z,3.00
2023-01-13T12:42:30.030Z,6.57
2023-01-13T12:45:12.924Z,3.22
2023-01-13T12:47:43.731Z,2.57
2023-01-13T12:50:37.531Z,4.50
2023-01-13T12:53:29.663Z,3.53
2023-01-13T12:56:40.279Z,2.65
2023-01-13T12:59:17.558Z,5.82
2023-01-13T13:01:47.367Z,2.87
2023-01-13T13:04:20.106Z,4.10
2023-01-13T13:07:08.752Z,3.30
2023-01-13T13:09:55.455Z,2.38
2023-01-13T13:13:09.305Z,3.03
2023-01-13T13:15:37.286Z,3.90
2023-01-13T13:18:17.461Z,3.20
2023-01-13T13:20:57.966Z,2.50
2023-01-13T13:23:37.972Z,4.43
2023-01-13T13:26:36.901Z,2.95
2023-01-13T13:29:19.712Z,3.10
2023-01-13T13:31:47.322Z,2.85
2023-01-13T13:34:32.760Z,3.38
2023-01-13T13:37:09.066Z,1.63
2023-01-13T13:40:01.164Z,6.97
2023-01-13T13:42:54.853Z,2.17
2023-01-13T13:45:44.192Z,4.57
2023-01-13T13:48:26.865Z,3.67
2023-01-13T13:51:00.263Z,6.00
2023-01-13T13:53:38.954Z,3.35
2023-01-13T13:56:18.004Z,5.87
2023-01-13T13:58:47.947Z,1.30
2023-01-13T14:01:30.195Z,2.45
2023-01-13T14:04:22.249Z,1.52
2023-01-13T14:07:02.366Z,2.65
2023-01-13T14:09:41.106Z,3.53
2023-01-13T14:12:23.007Z,3.97
2023-01-13T14:14:51.413Z,4.93
2023-01-13T14:17:24.752Z,4.43
2023-01-13T14:19:58.352Z,4.20
2023-01-13T14:22:26.858Z,3.80
2023-01-13T14:24:58.529Z,3.22
2023-01-13T14:27:28.045Z,4.32
2023-01-13T14:29:59.439Z,3.35
2023-01-13T14:32:36.121Z,5.93
2023-01-13T14:35:08.087Z,3.33
2023-01-13T14:37:39.155Z,7.97
2023-01-13T14:40:44.543Z,6.28
2023-01-13T14:43:15.374Z,2.40
2023-01-13T14:45:54.825Z,4.05
2023-01-13T14:48:27.099Z,1.53
2023-01-13T14:50:54.888Z,1.77
2023-01-13T14:53:45.230Z,2.22
2023-01-13T14:56:37.744Z,2.10
2023-01-13T14:59:33.856Z,1.63
2023-01-13T15:02:22.530Z,3.63
2023-01-13T15:04:54.011Z,3.20
2023-01-13T15:07:27.168Z,4.47
2023-01-13T15:09:58.585Z,5.57
2023-01-13T15:12:41.441Z,3.15
2023-01-13T15:15:26.337Z,4.20
2023-01-13T15:17:54.204Z,5.22
2023-01-13T15:20:25.075Z,3.45
2023-01-13T15:22:55.183Z,2.50
2023-01-13T15:25:22.912Z,4.38
2023-01-13T15:27:52.670Z,2.00
2023-01-13T15:30:25.137Z,5.90
2023-01-13T15:32:57.619Z,6.93
2023-01-13T15:35:28.449Z,9.98
2023-01-13T15:37:57.517Z,2.42
2023-01-13T15:40:33.255Z,14.93
2023-01-13T15:43:19.439Z,4.28
2023-01-13T15:46:05.988Z,3.53
2023-01-13T15:48:33.967Z,3.38
2023-01-13T15:51:03.646Z,2.10
2023-01-13T15:53:31.518Z,2.30
2023-01-13T15:56:00.434Z,2.85
2023-01-13T15:58:30.708Z,2.75
2023-01-13T16:00:58.472Z,5.05
2023-01-13T16:03:26.195Z,4.70
2023-01-13T16:05:53.800Z,2.87
2023-01-13T16:08:22.986Z,4.40
2023-01-13T16:10:50.998Z,4.55
2023-01-13T16:13:18.997Z,9.90
2023-01-13T16:15:49.724Z,5.05
2023-01-13T16:18:26.758Z,8.10
2023-01-13T16:20:55.334Z,5.00
2023-01-13T16:23:23.482Z,5.88
2023-01-13T16:25:51.663Z,6.90
2023-01-13T16:28:26.197Z,4.88
2023-01-13T16:30:54.418Z,5.27
2023-01-13T16:33:22.184Z,6.00
2023-01-13T16:36:10.807Z,6.13
2023-01-13T16:38:37.831Z,4.50
2023-01-13T16:41:05.746Z,3.03
2023-01-13T16:43:34.398Z,1.83
2023-01-13T16:46:02.084Z,4.63
2023-01-13T16:48:29.868Z,3.50
2023-01-13T16:50:58.170Z,3.88
2023-01-13T16:53:26.256Z,3.72
2023-01-13T16:55:53.877Z,2.87
2023-01-13T16:58:21.629Z,2.40
2023-01-13T17:00:49.290Z,5.75
2023-01-13T17:03:17.174Z,5.97
2023-01-13T17:05:47.698Z,8.95
2023-01-13T17:08:20.684Z,6.90
2023-01-13T17:10:48.452Z,6.75
2023-01-13T17:13:17.356Z,6.15
2023-01-13T17:15:46.006Z,5.38
2023-01-13T17:18:13.795Z,6.43
2023-01-13T17:20:41.507Z,8.00
2023-01-13T17:23:09.113Z,5.20
2023-01-13T17:25:36.897Z,5.47
2023-01-13T17:28:04.642Z,5.30
2023-01-13T17:30:32.581Z,6.35
2023-01-13T17:33:00.274Z,6.30
2023-01-13T17:35:27.841Z,5.88
2023-01-13T17:37:55.888Z,5.53
2023-01-13T17:40:23.505Z,5.07
2023-01-13T17:42:51.204Z,8.20
2023-01-13T17:45:18.876Z,5.83
2023-01-13T17:47:47.552Z,5.05
2023-01-13T17:50:19.283Z,6.38
2023-01-13T17:52:46.873Z,3.88
2023-01-13T17:55:14.649Z,10.27
2023-01-13T17:57:42.225Z,9.93
2023-01-13T18:00:12.515Z,6.50
2023-01-13T18:02:40.174Z,17.13
2023-01-13T18:05:08.177Z,9.23
2023-01-13T18:07:35.762Z,6.68
2023-01-13T18:10:03.431Z,11.67
2023-01-13T18:12:31.129Z,7.40
2023-01-13T18:14:58.700Z,8.23
2023-01-13T18:17:26.350Z,8.25
2023-01-13T18:20:12.477Z,9.13
2023-01-13T18:22:58.511Z,5.77
2023-01-13T18:25:44.650Z,12.82
2023-01-13T18:28:12.193Z,10.63
2023-01-13T18:30:39.783Z,11.02
2023-01-13T18:33:07.746Z,8.65
2023-01-13T18:35:38.657Z,11.13
2023-01-13T18:38:07.018Z,9.35
2023-01-13T18:40:34.595Z,14.95
2023-01-13T18:43:02.187Z,8.38
2023-01-13T18:45:31.882Z,8.07
2023-01-13T18:48:02.741Z,11.03
2023-01-13T18:50:30.681Z,9.63
2023-01-13T18:52:58.878Z,6.72
2023-01-13T18:55:28.679Z,10.95
2023-01-13T18:57:57.250Z,11.40
2023-01-13T19:00:26.981Z,9.47
2023-01-13T19:05:35.389Z,8.65
2023-01-13T19:08:04.066Z,8.32
2023-01-13T19:10:32.801Z,8.20
2023-01-13T19:13:01.730Z,10.33
2023-01-13T19:15:29.843Z,4.65
2023-01-13T19:17:57.569Z,5.78
2023-01-13T19:20:25.131Z,8.38
2023-01-13T19:22:54.629Z,7.65
2023-01-13T19:25:22.974Z,9.10
2023-01-13T19:27:50.525Z,7.93
2023-01-13T19:30:18.572Z,13.25
2023-01-13T19:32:46.144Z,13.30
2023-01-13T19:35:17.809Z,13.30
2023-01-13T19:37:45.817Z,10.70
2023-01-13T19:40:13.955Z,10.35
2023-01-13T19:43:04.378Z,11.98
2023-01-13T19:45:35.169Z,9.85
2023-01-13T19:48:05.324Z,7.05
2023-01-13T19:50:40.468Z,8.27
2023-01-13T19:53:15.776Z,12.52
2023-01-13T19:55:48.568Z,11.10
2023-01-13T19:58:18.967Z,14.07
2023-01-13T20:00:48.444Z,14.07
2023-01-13T20:03:24.300Z,13.47
2023-01-13T20:05:53.409Z,10.55
2023-01-13T20:08:22.799Z,11.80
2023-01-13T20:10:50.369Z,9.75
2023-01-13T20:13:18.125Z,14.68
2023-01-13T20:15:45.788Z,12.23
2023-01-13T20:18:13.390Z,11.82
2023-01-13T20:20:40.955Z,14.85
2023-01-13T20:23:09.605Z,17.30
2023-01-13T20:25:37.254Z,6.63
2023-01-13T20:28:05.273Z,12.70
2023-01-13T20:30:32.895Z,8.60
2023-01-13T20:33:00.777Z,13.90
2023-01-13T20:35:29.922Z,12.00
2023-01-13T20:37:57.533Z,15.48
2023-01-13T20:40:26.015Z,12.23
2023-01-13T20:42:53.794Z,13.48
2023-01-13T20:45:23.375Z,14.25
2023-01-13T20:47:51.038Z,12.57
2023-01-13T20:50:18.861Z,12.50
2023-01-13T20:52:47.865Z,14.20
2023-01-13T20:55:15.552Z,12.38
2023-01-13T20:57:43.599Z,14.13
2023-01-13T21:00:11.662Z,16.25
2023-01-13T21:02:41.118Z,12.52
2023-01-13T21:05:09.885Z,9.93
2023-01-13T21:07:37.471Z,16.65
2023-01-13T21:10:05.954Z,14.75
2023-01-13T21:12:51.993Z,15.30
2023-01-13T21:15:21.927Z,16.08
2023-01-13T21:18:10.679Z,11.20
2023-01-13T21:20:39.135Z,13.20
2023-01-13T21:23:07.356Z,19.85
2023-01-13T21:25:37.272Z,14.50
2023-01-13T21:28:06.061Z,15.90
2023-01-13T21:30:34.264Z,13.77
2023-01-13T21:33:03.986Z,11.43
2023-01-13T21:35:31.871Z,15.55
2023-01-13T21:37:59.591Z,13.90
2023-01-13T21:40:27.578Z,19.17
2023-01-13T21:43:14.158Z,11.23
2023-01-13T21:46:00.366Z,11.45
2023-01-13T21:48:28.086Z,12.60
2023-01-13T21:51:00.302Z,12.25
2023-01-13T21:53:28.078Z,13.02
2023-01-13T21:55:55.634Z,11.17
2023-01-13T21:58:23.319Z,14.98
2023-01-13T22:00:51.103Z,10.95
2023-01-13T22:03:18.847Z,13.98
2023-01-13T22:05:47.038Z,15.85
2023-01-13T22:08:14.723Z,13.50
2023-01-13T22:10:57.785Z,11.20
2023-01-13T22:13:46.226Z,11.65
2023-01-13T22:16:16.107Z,14.85
2023-01-13T22:18:44.197Z,12.65
2023-01-13T22:21:12.184Z,11.33
2023-01-13T22:23:39.805Z,10.73
2023-01-13T22:26:08.854Z,9.32
2023-01-13T22:28:43.090Z,14.82
2023-01-13T22:31:15.714Z,9.60
2023-01-13T22:33:47.074Z,10.07
2023-01-13T22:36:15.636Z,16.92
2023-01-13T22:38:43.259Z,14.98
2023-01-13T22:41:11.253Z,18.20
2023-01-13T22:43:39.225Z,14.07
2023-01-13T22:46:09.770Z,8.73
2023-01-13T22:48:38.799Z,13.98
2023-01-13T22:51:07.533Z,12.65
2023-01-13T22:53:36.071Z,15.63
2023-01-13T22:56:04.760Z,14.15
2023-01-13T22:58:32.613Z,9.90
2023-01-13T23:01:11.632Z,13.38
2023-01-13T23:03:39.405Z,13.57
2023-01-13T23:06:07.076Z,12.57
2023-01-13T23:08:35.248Z,10.40
2023-01-13T23:11:05.072Z,11.03
2023-01-13T23:13:32.819Z,10.48
2023-01-13T23:16:05.991Z,13.05
2023-01-13T23:18:34.156Z,14.23
2023-01-13T23:21:07.050Z,9.95
2023-01-13T23:23:34.940Z,10.33
2023-01-13T23:26:03.608Z,12.52
2023-01-13T23:28:32.607Z,15.52
2023-01-13T23:31:00.310Z,7.88
2023-01-13T23:33:27.895Z,14.95
2023-01-13T23:35:59.958Z,14.93
2023-01-13T23:38:28.462Z,12.15
2023-01-13T23:40:56.451Z,12.50
2023-01-13T23:43:26.405Z,10.73
2023-01-13T23:46:05.327Z,8.43
2023-01-13T23:48:33.670Z,10.50
2023-01-13T23:51:03.612Z,10.40
2023-01-13T23:53:33.819Z,12.48
2023-01-13T23:56:02.641Z,15.55
2023-01-13T23:58:32.026Z,12.80
